createdAt,value
2017-11-22T00:02:02.934Z,8.2
2017-11-22T00:07:03.365Z,8.2
2017-11-22T00:12:03.441Z,8.1
2017-11-22T00:17:03.529Z,8.0
2017-11-22T00:22:02.730Z,8.0
2017-11-22T00:27:02.772Z,8.0
2017-11-22T00:32:02.768Z,8.0
2017-11-22T00:37:03.074Z,8.0
2017-11-22T00:42:03.124Z,7.7
2017-11-22T00:47:03.211Z,7.7
2017-11-22T00:52:03.423Z,7.7
2017-11-22T00:57:02.744Z,7.7
2017-11-22T01:02:02.969Z,7.8
2017-11-22T01:07:02.824Z,8.0
2017-11-22T01:12:03.258Z,8.0
2017-11-22T01:17:03.179Z,8.1
2017-11-22T01:22:02.707Z,8.3
2017-11-22T01:27:02.873Z,8.4
2017-11-22T01:32:03.694Z,8.3
2017-11-22T01:37:03.073Z,8.4
2017-11-22T01:42:03.304Z,8.5
2017-11-22T01:47:03.565Z,8.5
2017-11-22T01:52:03.134Z,8.5
2017-11-22T01:57:03.384Z,8.6
2017-11-22T02:02:03.509Z,8.6
2017-11-22T02:07:03.389Z,8.6
2017-11-22T02:12:03.543Z,8.6
2017-11-22T02:17:03.030Z,8.6
2017-11-22T02:22:03.094Z,8.6
2017-11-22T02:27:02.853Z,8.5
2017-11-22T02:32:02.861Z,8.2
2017-11-22T02:37:02.745Z,8.2
2017-11-22T02:42:03.544Z,8.1
2017-11-22T02:47:03.606Z,8.1
2017-11-22T02:52:03.316Z,8.1
2017-11-22T02:57:03.181Z,7.9
2017-11-22T03:02:03.191Z,7.6
2017-11-22T03:07:03.348Z,7.5
2017-11-22T03:12:03.425Z,7.4
2017-11-22T03:17:03.601Z,7.3
2017-11-22T03:22:03.007Z,7.2
2017-11-22T03:27:03.228Z,7.1
2017-11-22T03:32:03.201Z,7.0
2017-11-22T03:37:02.899Z,6.9
2017-11-22T03:42:03.112Z,6.9
2017-11-22T03:47:03.449Z,6.8
2017-11-22T03:52:02.769Z,6.6
2017-11-22T03:57:03.120Z,6.5
2017-11-22T04:02:03.447Z,6.5
2017-11-22T04:07:02.994Z,6.4
2017-11-22T04:12:03.265Z,6.4
2017-11-22T04:17:03.643Z,6.2
2017-11-22T04:22:02.998Z,6.2
2017-11-22T04:27:03.209Z,6.2
2017-11-22T04:32:03.479Z,6.2
2017-11-22T04:37:02.869Z,6.2
2017-11-22T04:42:02.997Z,6.3
2017-11-22T04:47:03.353Z,6.4
2017-11-22T04:52:02.690Z,6.4
2017-11-22T04:57:03.019Z,6.4
2017-11-22T05:02:03.243Z,6.5
2017-11-22T05:07:03.644Z,6.4
2017-11-22T05:12:03.135Z,6.4
2017-11-22T05:17:03.484Z,6.4
2017-11-22T05:22:02.810Z,6.4
2017-11-22T05:27:03.120Z,6.4
2017-11-22T05:32:03.417Z,6.3
2017-11-22T05:37:02.757Z,6.4
2017-11-22T05:42:03.064Z,6.3
2017-11-22T05:47:03.276Z,6.2
2017-11-22T05:52:03.527Z,5.9
2017-11-22T05:57:02.807Z,5.9
2017-11-22T06:02:04.771Z,5.8
2017-11-22T06:07:02.736Z,5.6
2017-11-22T06:12:03.290Z,5.6
2017-11-22T06:17:13.980Z,5.5
2017-11-22T06:22:03.277Z,5.6
2017-11-22T06:27:02.764Z,5.5
2017-11-22T06:32:13.538Z,5.5
2017-11-22T06:37:02.828Z,5.4
2017-11-22T06:42:03.428Z,5.5
2017-11-22T06:47:13.497Z,5.4
2017-11-22T06:52:03.365Z,5.4
2017-11-22T06:57:02.734Z,5.4
2017-11-22T07:02:13.543Z,5.6
2017-11-22T07:07:02.871Z,5.6
2017-11-22T07:12:03.452Z,5.7
2017-11-22T07:17:13.409Z,5.7
2017-11-22T07:22:03.379Z,5.8
2017-11-22T07:27:02.734Z,6.0
2017-11-22T07:32:13.971Z,6.0
2017-11-22T07:37:03.591Z,6.3
2017-11-22T07:42:02.972Z,6.7
2017-11-22T07:47:18.154Z,7.0
2017-11-22T07:52:02.953Z,7.4
2017-11-22T07:57:03.287Z,7.6
2017-11-22T08:02:23.395Z,7.8
2017-11-22T08:07:03.341Z,8.3
2017-11-22T08:12:02.988Z,8.2
2017-11-22T08:17:13.924Z,8.7
2017-11-22T08:22:03.017Z,9.0
2017-11-22T08:27:03.453Z,9.1
2017-11-22T08:32:13.208Z,9.6
2017-11-22T08:37:03.314Z,9.9
2017-11-22T08:42:02.726Z,9.8
2017-11-22T08:47:13.702Z,10.4
2017-11-22T08:52:02.637Z,10.4
2017-11-22T08:57:03.441Z,10.7
2017-11-22T09:02:08.766Z,11.1
2017-11-22T09:07:03.233Z,11.3
2017-11-22T09:12:03.010Z,11.3
2017-11-22T09:17:18.273Z,11.7
2017-11-22T09:22:03.034Z,12.1
2017-11-22T09:27:03.437Z,12.5
2017-11-22T09:32:17.425Z,12.9
2017-11-22T09:37:03.525Z,13.3
2017-11-22T09:42:03.034Z,14.1
2017-11-22T09:47:17.313Z,14.1
2017-11-22T09:52:02.936Z,14.4
2017-11-22T09:57:03.358Z,14.7
2017-11-22T10:02:17.317Z,14.9
2017-11-22T10:07:02.990Z,14.9
2017-11-22T10:12:03.383Z,15.2
2017-11-22T10:17:13.877Z,15.6
2017-11-22T10:22:03.659Z,16.3
2017-11-22T10:27:03.099Z,16.2
2017-11-22T10:32:10.824Z,16.5
2017-11-22T10:37:02.874Z,16.7
2017-11-22T10:42:03.357Z,16.8
2017-11-22T10:47:13.246Z,17.0
2017-11-22T10:52:03.362Z,17.2
2017-11-22T10:57:02.815Z,17.1
2017-11-22T11:02:13.636Z,17.5
2017-11-22T11:07:03.354Z,17.7
2017-11-22T11:12:02.904Z,17.9
2017-11-22T11:17:13.724Z,17.9
2017-11-22T11:22:03.561Z,18.2
2017-11-22T11:27:03.078Z,18.4
2017-11-22T11:32:17.800Z,18.7
2017-11-22T11:37:03.010Z,18.6
2017-11-22T11:42:03.395Z,19.0
2017-11-22T11:47:22.798Z,19.0
2017-11-22T11:52:03.457Z,19.2
2017-11-22T11:57:02.970Z,19.2
2017-11-22T12:02:17.770Z,19.2
2017-11-22T12:07:03.165Z,19.3
2017-11-22T12:12:03.540Z,19.5
2017-11-22T12:17:12.362Z,19.7
2017-11-22T12:22:02.856Z,19.8
2017-11-22T12:27:03.346Z,19.7
2017-11-22T12:32:17.243Z,19.9
2017-11-22T12:37:03.197Z,20.1
2017-11-22T12:42:03.502Z,20.0
2017-11-22T12:47:13.269Z,20.1
2017-11-22T12:52:03.296Z,20.5
2017-11-22T12:57:02.817Z,20.4
2017-11-22T13:02:13.518Z,20.6
2017-11-22T13:07:02.927Z,20.6
2017-11-22T13:12:03.457Z,20.7
2017-11-22T13:17:13.399Z,20.8
2017-11-22T13:22:03.412Z,20.9
2017-11-22T13:27:02.955Z,21.1
2017-11-22T13:32:17.912Z,21.3
2017-11-22T13:37:03.423Z,21.5
2017-11-22T13:42:02.817Z,21.7
2017-11-22T13:47:17.829Z,22.2
2017-11-22T13:52:02.809Z,22.2
2017-11-22T13:57:03.274Z,22.8
2017-11-22T14:02:17.549Z,23.4
2017-11-22T14:07:02.775Z,23.9
2017-11-22T14:12:03.384Z,24.8
2017-11-22T14:17:17.684Z,24.8
2017-11-22T14:22:03.501Z,25.4
2017-11-22T14:27:02.998Z,25.8
2017-11-22T14:32:13.610Z,26.2
2017-11-22T14:37:03.123Z,27.5
2017-11-22T14:42:03.441Z,27.5
2017-11-22T14:47:13.190Z,28.8
2017-11-22T14:52:03.503Z,29.0
2017-11-22T14:57:02.946Z,29.0
2017-11-22T15:02:13.604Z,28.6
2017-11-22T15:07:03.326Z,28.5
2017-11-22T15:12:02.943Z,28.5
2017-11-22T15:17:11.076Z,27.3
2017-11-22T15:22:02.998Z,27.2
2017-11-22T15:27:03.381Z,23.5
2017-11-22T15:32:13.230Z,21.5
2017-11-22T15:37:03.306Z,21.3
2017-11-22T15:42:02.720Z,20.0
2017-11-22T15:47:13.417Z,18.1
2017-11-22T15:52:02.671Z,18.1
2017-11-22T15:57:03.465Z,17.5
2017-11-22T16:02:22.533Z,16.2
2017-11-22T16:07:03.341Z,15.7
2017-11-22T16:12:02.988Z,15.7
2017-11-22T16:17:14.061Z,15.2
2017-11-22T16:22:02.791Z,14.6
2017-11-22T16:27:03.056Z,13.8
2017-11-22T16:32:07.231Z,13.7
2017-11-22T16:37:02.921Z,13.3
2017-11-22T16:42:03.138Z,12.7
2017-11-22T16:47:03.514Z,12.3
2017-11-22T16:52:02.928Z,12.3
2017-11-22T16:57:03.174Z,12.0
2017-11-22T17:02:03.474Z,11.7
2017-11-22T17:07:03.002Z,11.1
2017-11-22T17:12:03.464Z,11.1
2017-11-22T17:17:02.965Z,10.8
2017-11-22T17:22:03.207Z,10.5
2017-11-22T17:27:03.500Z,10.3
2017-11-22T17:32:02.904Z,10.1
2017-11-22T17:37:03.173Z,10.0
2017-11-22T17:42:03.307Z,9.8
2017-11-22T17:47:02.840Z,9.6
2017-11-22T17:52:03.068Z,9.5
2017-11-22T17:57:03.310Z,9.2
2017-11-22T18:02:02.867Z,9.0
2017-11-22T18:07:03.134Z,8.8
2017-11-22T18:12:03.536Z,8.6
2017-11-22T18:17:03.104Z,8.6
2017-11-22T18:22:03.304Z,8.2
2017-11-22T18:27:03.603Z,8.2
2017-11-22T18:32:02.963Z,7.8
2017-11-22T18:37:03.323Z,7.8
2017-11-22T18:42:03.594Z,7.5
2017-11-22T18:47:03.023Z,7.4
2017-11-22T18:52:03.257Z,7.2
2017-11-22T18:57:03.461Z,7.2
2017-11-22T19:02:03.047Z,7.0
2017-11-22T19:07:03.220Z,6.9
2017-11-22T19:12:02.785Z,6.9
2017-11-22T19:17:03.193Z,6.9
2017-11-22T19:22:03.443Z,6.8
2017-11-22T19:27:02.805Z,6.8
2017-11-22T19:32:03.167Z,6.7
2017-11-22T19:37:03.426Z,6.6
2017-11-22T19:42:02.771Z,6.4
2017-11-22T19:47:03.052Z,6.3
2017-11-22T19:52:03.256Z,6.3
2017-11-22T19:57:03.662Z,6.2
2017-11-22T20:02:02.947Z,6.0
2017-11-22T20:07:03.328Z,6.0
2017-11-22T20:12:02.876Z,6.0
2017-11-22T20:17:03.115Z,6.0
2017-11-22T20:22:03.482Z,6.0
2017-11-22T20:27:02.892Z,5.8
2017-11-22T20:32:03.160Z,5.6
2017-11-22T20:37:03.477Z,5.6
2017-11-22T20:42:02.749Z,5.6
2017-11-22T20:47:03.045Z,5.6
2017-11-22T20:52:03.354Z,5.6
2017-11-22T20:57:02.678Z,5.5
2017-11-22T21:02:03.097Z,5.4
2017-11-22T21:07:03.465Z,5.3
2017-11-22T21:12:02.940Z,5.2
2017-11-22T21:17:03.248Z,5.1
2017-11-22T21:22:03.655Z,5.0
2017-11-22T21:27:03.030Z,4.8
2017-11-22T21:32:03.304Z,4.7
2017-11-22T21:37:03.640Z,4.6
2017-11-22T21:42:03.028Z,4.5
2017-11-22T21:47:05.261Z,4.4
2017-11-22T21:52:03.767Z,4.4
2017-11-22T21:57:02.870Z,4.4
2017-11-22T22:02:03.994Z,4.3
2017-11-22T22:07:03.752Z,4.2
2017-11-22T22:12:03.056Z,4.3
2017-11-22T22:17:03.348Z,4.2
2017-11-22T22:22:02.736Z,4.2
2017-11-22T22:27:03.120Z,4.2
2017-11-22T22:32:03.312Z,4.2
2017-11-22T22:37:03.645Z,4.2
2017-11-22T22:42:02.954Z,4.1
2017-11-22T22:47:03.333Z,4.1
2017-11-22T22:52:03.545Z,4.1
2017-11-22T22:57:02.869Z,4.0
2017-11-22T23:02:03.381Z,3.9
2017-11-22T23:07:03.022Z,3.8
2017-11-22T23:12:03.505Z,3.9
2017-11-22T23:22:03.317Z,4.0
2017-11-22T23:27:03.018Z,4.0
2017-11-22T23:32:03.097Z,4.1
2017-11-22T23:37:03.543Z,4.1
2017-11-22T23:42:03.504Z,4.0
2017-11-22T23:47:03.500Z,4.0
2017-11-22T23:52:03.293Z,4.0
2017-11-22T23:57:03.393Z,4.0
